Accueil
METAR-TAF:

METAR-TAF

Aéroports :

Aéroport international d'Aba Tenna Dejazmach Yilma

Dire Dawa, Éthiopie

latitude: 09-36N, longitude: 041-52E, altitude: 1146 m

METAR: absent

Heure: 02:20 (23:20 UTC)

Prévision

Le bulletin a été fait il y a 7 heures et 50 minutes, à 15:30 UTC
Prévision valable du 17 à 18 UTC au 18 à 24 UTC
Vent 11 kt de sud/sud-est avec des rafales jusqu'à 40 kt
Visibilité 10 km ou plus
Nuages épars à une hauteur de 2500 ft
Nuages épars à une hauteur de 8000 ft

TAF: HADR 171530Z 1718/1824 16011G40KT 9999 SCT025 SCT080

Observations et prévisions météorologiques de plus de 4000 aéroports (messages METAR et TAF).

Les stations disponibles sont représentées par des disques jaunes et rouges sur la carte.

Passer la souris dessus pour voir le nom de la station.

Cliquer dessus pour voir les observations et prévisions météorologiques.

Pour changer de carte: cliquez sur les boutons verts avec une croix noire pour zoomer, sur le bouton vert avec un tiret pour effectuer un zoom arrière, ou sur les flèches vertes pour les cartes adjacentes.


METAR-TAF: